Time;durP1;ratioP1;P1;durP2;ratioP2;P2;SDS_P1;SDS_P2;PMS_P1;PMS_P2;Temp;Humidity;BMP_temperature;BMP_pressure;BME280_temperature;BME280_humidity;BME280_pressure;Samples;Min_cycle;Max_cycle;Signal;HPM_P1;HPM_P2
2021/12/22 00:02:12;;;;;;;10.63;9.30;;;;;;;1.30;65.89;101181.28;10224790;28;20063;-59
2021/12/22 00:07:14;;;;;;;12.10;9.95;;;;;;;1.26;65.48;101176.16;10226698;28;20138;-59
2021/12/22 00:12:16;;;;;;;15.68;12.98;;;;;;;0.95;66.02;101167.34;10225266;28;20058;-59
2021/12/22 00:17:17;;;;;;;12.68;11.35;;;;;;;1.08;66.32;101177.50;10226091;28;20111;-60
2021/12/22 00:22:19;;;;;;;13.80;12.40;;;;;;;1.06;66.61;101182.81;10225999;28;20567;-59
2021/12/22 00:27:20;;;;;;;15.63;11.55;;;;;;;1.05;66.14;101189.81;10208931;28;20106;-60
2021/12/22 00:32:24;;;;;;;16.80;11.38;;;;;;;0.79;66.51;101156.38;10226413;28;20166;-59
2021/12/22 00:37:28;;;;;;;17.85;12.38;;;;;;;1.00;65.66;101175.94;10272656;23;20367;-62
2021/12/22 00:42:29;;;;;;;14.88;12.10;;;;;;;0.98;65.74;101183.00;10259828;28;20517;-64
2021/12/22 00:47:32;;;;;;;14.48;11.50;;;;;;;1.12;65.87;101176.53;10260682;28;20061;-63
2021/12/22 00:52:33;;;;;;;15.43;10.95;;;;;;;1.12;65.63;101181.78;10263750;28;20050;-64
2021/12/22 00:57:37;;;;;;;15.98;10.93;;;;;;;1.05;65.76;101187.19;10259336;28;20053;-64
2021/12/22 01:02:39;;;;;;;13.83;9.40;;;;;;;0.89;66.20;101183.25;10259739;28;20043;-65
2021/12/22 01:07:43;;;;;;;10.57;8.90;;;;;;;0.85;66.57;101178.97;10259855;28;20594;-65
2021/12/22 01:12:53;;;;;;;12.00;9.60;;;;;;;0.81;66.22;101180.81;10243108;28;20054;-64
2021/12/22 01:18:02;;;;;;;12.57;9.48;;;;;;;0.82;66.47;101187.75;10259791;28;20378;-64
2021/12/22 01:23:06;;;;;;;13.43;9.65;;;;;;;0.77;66.48;101178.31;10261573;28;20073;-65
2021/12/22 01:28:07;;;;;;;14.07;9.20;;;;;;;0.75;66.44;101183.59;10239992;28;20130;-64
2021/12/22 01:33:09;;;;;;;12.90;8.90;;;;;;;0.61;67.08;101181.28;10233865;28;20532;-64
2021/12/22 01:38:11;;;;;;;13.20;10.75;;;;;;;0.59;67.42;101188.34;10259321;28;20059;-64
2021/12/22 01:43:14;;;;;;;12.98;10.70;;;;;;;0.61;67.28;101196.16;10264851;28;20165;-64
2021/12/22 01:53:46;;;;;;;13.15;9.73;;;;;;;0.67;67.09;101193.41;10256824;28;20046;-65
2021/12/22 01:58:50;;;;;;;13.88;9.50;;;;;;;0.78;66.70;101206.22;10258632;28;20575;-65
2021/12/22 02:03:53;;;;;;;12.98;10.00;;;;;;;0.78;65.88;101195.75;10240556;28;20059;-65
2021/12/22 02:08:55;;;;;;;11.15;9.98;;;;;;;0.77;66.50;101204.53;10257863;28;20449;-65
2021/12/22 02:14:00;;;;;;;13.07;9.45;;;;;;;0.63;66.03;101197.84;10258191;28;20053;-65
2021/12/22 02:19:06;;;;;;;13.50;9.98;;;;;;;0.64;66.40;101203.94;10245208;28;20047;-65
2021/12/22 02:24:07;;;;;;;10.03;8.80;;;;;;;0.61;66.65;101199.63;10268030;28;20130;-64
2021/12/22 02:29:19;;;;;;;13.00;10.90;;;;;;;0.45;66.86;101204.41;10262214;28;20071;-64
2021/12/22 02:34:21;;;;;;;16.13;10.98;;;;;;;0.45;66.84;101198.28;10262993;28;20122;-64
2021/12/22 02:39:22;;;;;;;15.30;10.55;;;;;;;0.30;66.42;101203.00;10266217;28;20089;-63
2021/12/22 02:44:23;;;;;;;14.18;11.93;;;;;;;0.25;66.78;101212.69;10267629;28;20050;-64
2021/12/22 02:49:25;;;;;;;15.07;11.70;;;;;;;0.21;67.15;101210.16;10266703;28;20154;-63
2021/12/22 02:54:28;;;;;;;17.75;12.25;;;;;;;0.09;67.04;101212.19;10266152;28;20046;-64
2021/12/22 03:04:56;;;;;;;15.70;12.57;;;;;;;-0.06;67.57;101202.91;10267759;28;20102;-65
2021/12/22 03:10:09;;;;;;;15.50;12.93;;;;;;;-0.01;67.52;101221.97;10266407;28;20134;-64
2021/12/22 03:15:11;;;;;;;15.32;12.85;;;;;;;-0.12;67.44;101223.97;10269392;28;20502;-64
2021/12/22 03:20:14;;;;;;;14.10;12.52;;;;;;;-0.22;67.63;101225.06;10265811;28;20054;-64
2021/12/22 03:25:17;;;;;;;16.65;13.45;;;;;;;-0.27;67.74;101219.03;10264440;28;20403;-64
2021/12/22 03:30:23;;;;;;;15.38;11.98;;;;;;;-0.24;67.84;101224.19;10276653;28;20062;-64
2021/12/22 03:35:25;;;;;;;17.70;12.18;;;;;;;-0.25;67.69;101214.66;10303080;28;20047;-64
2021/12/22 03:40:27;;;;;;;16.27;12.57;;;;;;;-0.28;67.86;101217.31;10247368;28;20117;-64
2021/12/22 03:45:29;;;;;;;17.67;12.88;;;;;;;-0.30;67.56;101209.50;10245664;28;21933;-65
2021/12/22 03:50:30;;;;;;;16.08;12.55;;;;;;;-0.40;67.72;101211.44;10252421;28;20134;-64
2021/12/22 03:55:32;;;;;;;14.10;11.98;;;;;;;-0.34;67.30;101210.44;10265081;28;20049;-63
2021/12/22 04:00:36;;;;;;;15.88;12.02;;;;;;;-0.37;67.15;101210.50;10264301;28;20389;-63
2021/12/22 04:05:37;;;;;;;12.93;11.30;;;;;;;-0.43;67.37;101203.63;10264381;28;20265;-64
2021/12/22 04:10:39;;;;;;;15.75;12.25;;;;;;;-0.48;67.30;101192.41;10266151;28;20240;-64
2021/12/22 04:15:41;;;;;;;16.98;13.27;;;;;;;-0.55;68.00;101202.13;10263747;28;20437;-64
2021/12/22 04:20:43;;;;;;;14.07;11.48;;;;;;;-0.53;67.61;101196.84;10263893;28;20117;-65
2021/12/22 04:25:46;;;;;;;16.67;13.35;;;;;;;-0.58;67.80;101193.50;10245905;28;20390;-64
2021/12/22 04:30:49;;;;;;;16.13;12.50;;;;;;;-0.58;67.68;101196.94;10262202;28;20053;-64
2021/12/22 04:35:52;;;;;;;17.27;13.55;;;;;;;-0.54;67.84;101205.63;10261932;28;20456;-64
2021/12/22 04:40:54;;;;;;;16.27;13.27;;;;;;;-0.68;67.83;101202.38;10262187;28;20125;-64
2021/12/22 04:45:55;;;;;;;13.88;11.75;;;;;;;-0.62;67.81;101187.44;10261912;28;20046;-64
2021/12/22 04:50:57;;;;;;;14.02;12.07;;;;;;;-0.61;67.73;101183.94;10237977;28;20197;-64
2021/12/22 04:55:59;;;;;;;14.25;11.77;;;;;;;-0.73;67.58;101177.19;10262089;28;20054;-64
2021/12/22 05:01:00;;;;;;;13.77;10.73;;;;;;;-0.70;68.38;101183.25;10261993;28;20073;-64
2021/12/22 05:06:02;;;;;;;14.50;11.18;;;;;;;-0.73;68.36;101182.41;10263885;28;20137;-64
2021/12/22 05:11:04;;;;;;;15.43;11.20;;;;;;;-0.74;68.61;101183.28;10287713;28;20536;-64
2021/12/22 05:16:06;;;;;;;14.15;9.98;;;;;;;-0.67;68.37;101186.66;10262783;28;20069;-65
2021/12/22 05:21:07;;;;;;;12.70;10.52;;;;;;;-0.68;67.76;101177.09;10260997;28;20070;-64
2021/12/22 05:26:08;;;;;;;14.27;11.77;;;;;;;-0.68;68.09;101182.31;10244011;28;20357;-64
2021/12/22 05:31:10;;;;;;;16.88;11.05;;;;;;;-0.66;68.08;101193.63;10261438;28;20055;-65
2021/12/22 05:36:12;;;;;;;13.80;10.25;;;;;;;-0.69;67.76;101187.59;10229557;28;20047;-64
2021/12/22 05:41:13;;;;;;;12.40;9.68;;;;;;;-0.74;68.35;101185.91;10261173;28;20296;-65
2021/12/22 05:46:15;;;;;;;11.70;9.75;;;;;;;-0.75;68.32;101186.81;10261589;28;20473;-64
2021/12/22 05:51:16;;;;;;;13.18;10.30;;;;;;;-0.76;68.13;101185.09;10260063;28;20121;-64
2021/12/22 05:56:17;;;;;;;14.60;9.63;;;;;;;-0.78;67.82;101176.41;10237096;28;20375;-65
2021/12/22 06:01:19;;;;;;;11.68;9.88;;;;;;;-0.76;67.04;101184.22;10263110;28;20051;-65
2021/12/22 06:06:20;;;;;;;13.07;10.65;;;;;;;-0.73;67.26;101190.25;10260791;28;20148;-64
2021/12/22 06:11:22;;;;;;;12.32;10.07;;;;;;;-0.77;67.11;101193.81;10262067;28;20493;-64
2021/12/22 06:16:24;;;;;;;12.90;9.55;;;;;;;-0.86;67.77;101199.22;10260114;28;20050;-64
2021/12/22 06:21:25;;;;;;;12.35;9.60;;;;;;;-0.87;67.77;101207.09;10259400;28;20038;-64
2021/12/22 06:26:27;;;;;;;13.23;9.05;;;;;;;-0.68;67.11;101216.31;10226805;28;20058;-64
2021/12/22 06:31:28;;;;;;;10.45;8.68;;;;;;;-0.71;67.75;101224.22;10234939;28;20063;-65
2021/12/22 06:36:31;;;;;;;12.93;8.68;;;;;;;-0.61;67.76;101230.16;10242459;28;20529;-65
2021/12/22 06:41:33;;;;;;;15.32;9.70;;;;;;;-0.52;66.77;101229.97;10245002;28;20055;-64
2021/12/22 06:46:34;;;;;;;13.00;10.48;;;;;;;-0.51;66.82;101230.84;10246356;28;20420;-65
2021/12/22 06:51:37;;;;;;;11.93;10.05;;;;;;;-0.65;66.87;101228.47;10245235;28;20054;-65
2021/12/22 06:56:38;;;;;;;11.85;10.32;;;;;;;-0.83;66.95;101212.22;10245661;28;20299;-65
2021/12/22 07:01:40;;;;;;;12.25;10.57;;;;;;;-0.78;67.03;101227.81;10244680;28;20133;-65
2021/12/22 07:06:41;;;;;;;15.10;10.52;;;;;;;-0.83;67.26;101224.44;10227001;28;20051;-65
2021/12/22 07:11:43;;;;;;;11.90;9.90;;;;;;;-0.88;67.43;101221.91;10246899;28;20074;-65
2021/12/22 07:16:45;;;;;;;13.88;10.73;;;;;;;-0.92;67.27;101226.31;10245772;28;20559;-66
2021/12/22 07:21:49;;;;;;;13.43;11.13;;;;;;;-0.98;67.04;101241.25;10254467;28;20062;-66
2021/12/22 07:26:50;;;;;;;15.90;11.73;;;;;;;-0.99;67.33;101249.97;10232935;28;20038;-65
2021/12/22 07:31:52;;;;;;;13.32;11.88;;;;;;;-1.00;67.44;101253.50;10245573;28;20046;-66
2021/12/22 07:37:03;;;;;;;16.27;11.38;;;;;;;-0.99;67.52;101255.19;10248849;28;20058;-63
2021/12/22 07:42:04;;;;;;;14.40;10.98;;;;;;;-1.02;67.24;101257.88;10246749;28;20050;-64
2021/12/22 07:47:06;;;;;;;13.75;10.70;;;;;;;-1.04;67.48;101251.81;10249619;28;20577;-65
2021/12/22 07:52:08;;;;;;;11.60;10.15;;;;;;;-0.91;67.22;101261.19;10248031;28;20047;-65
2021/12/22 07:57:09;;;;;;;14.50;9.98;;;;;;;-0.79;67.52;101260.97;10246805;28;20069;-63
2021/12/22 08:02:12;;;;;;;13.02;9.60;;;;;;;-0.82;67.42;101262.78;10249534;28;20061;-63
2021/12/22 08:07:17;;;;;;;13.63;9.95;;;;;;;-0.98;67.87;101249.94;10250958;28;20062;-63
2021/12/22 08:12:18;;;;;;;13.32;10.38;;;;;;;-0.76;67.36;101258.28;10233108;28;20042;-63
2021/12/22 08:17:21;;;;;;;10.68;8.88;;;;;;;-0.72;66.89;101257.38;10246761;28;20050;-64
2021/12/22 08:22:23;;;;;;;19.73;9.65;;;;;;;-0.71;66.97;101250.38;10248684;28;20050;-65
2021/12/22 08:27:24;;;;;;;14.57;9.73;;;;;;;-0.69;66.23;101237.25;10247793;28;20413;-64
2021/12/22 08:32:26;;;;;;;12.30;8.70;;;;;;;-0.59;66.26;101251.91;10242187;28;20253;-65
2021/12/22 08:42:49;;;;;;;11.50;9.55;;;;;;;-0.51;65.73;101242.19;10270518;28;20138;-64
2021/12/22 08:47:50;;;;;;;15.07;10.02;;;;;;;-0.44;65.47;101227.22;10234365;28;20359;-64
2021/12/22 08:52:57;;;;;;;14.55;10.93;;;;;;;-0.31;65.30;101233.94;10258844;28;20652;-65
2021/12/22 08:57:59;;;;;;;14.55;10.52;;;;;;;-0.29;65.34;101224.28;10261349;28;20145;-65
2021/12/22 09:03:00;;;;;;;14.60;13.07;;;;;;;-0.30;65.48;101219.09;10263791;28;20325;-65
2021/12/22 09:08:02;;;;;;;47.95;28.33;;;;;;;-0.19;65.28;101227.59;10267931;28;20043;-65
2021/12/22 09:13:03;;;;;;;14.23;10.38;;;;;;;-0.15;65.78;101229.28;10236127;28;20978;-64
2021/12/22 09:18:05;;;;;;;11.35;9.55;;;;;;;-0.21;66.13;101224.13;10226393;28;20154;-65
2021/12/22 09:23:07;;;;;;;12.38;11.07;;;;;;;-0.37;66.96;101221.84;10248140;28;20141;-65
2021/12/22 09:28:09;;;;;;;12.35;10.02;;;;;;;-0.25;66.27;101222.50;10246648;28;20062;-65
2021/12/22 09:33:16;;;;;;;17.35;11.70;;;;;;;-0.09;66.05;101229.13;10241762;28;20146;-63
2021/12/22 09:38:17;;;;;;;16.20;12.40;;;;;;;0.01;65.88;101221.09;10242319;28;20293;-65
2021/12/22 09:43:19;;;;;;;13.05;11.63;;;;;;;0.13;65.39;101215.59;10245900;28;20368;-66
2021/12/22 09:48:36;;;;;;;17.13;13.80;;;;;;;0.23;66.02;101208.41;10245199;28;20264;-65
2021/12/22 09:53:44;;;;;;;15.85;13.27;;;;;;;0.50;65.68;101214.75;10232909;28;20126;-64
2021/12/22 09:58:46;;;;;;;16.60;13.18;;;;;;;0.54;65.04;101208.53;10247047;28;20424;-64
2021/12/22 10:03:47;;;;;;;14.13;12.00;;;;;;;0.78;64.63;101211.47;10245650;28;20051;-64
2021/12/22 10:08:57;;;;;;;14.75;13.00;;;;;;;0.82;63.80;101192.16;10241234;28;20698;-64
2021/12/22 10:13:59;;;;;;;18.23;13.07;;;;;;;1.01;63.51;101193.41;10240306;28;20049;-64
2021/12/22 10:19:05;;;;;;;14.77;12.00;;;;;;;1.09;63.23;101184.50;10240072;28;20102;-63
2021/12/22 10:24:07;;;;;;;14.20;12.57;;;;;;;1.29;62.58;101176.97;10239092;28;20051;-65
2021/12/22 10:29:10;;;;;;;15.05;12.52;;;;;;;1.73;61.54;101172.22;10239804;28;20070;-64
2021/12/22 10:34:13;;;;;;;19.13;14.75;;;;;;;2.14;60.94;101163.16;10219744;28;20157;-64
2021/12/22 10:39:24;;;;;;;15.75;12.05;;;;;;;2.65;59.43;101152.72;10238907;28;20055;-63
2021/12/22 10:44:41;;;;;;;17.33;12.57;;;;;;;3.14;57.33;101147.56;10239081;28;20055;-64
2021/12/22 10:49:58;;;;;;;15.20;12.48;;;;;;;3.61;55.99;101148.53;10238374;28;20065;-62
2021/12/22 10:55:13;;;;;;;15.27;12.48;;;;;;;4.04;53.90;101134.59;10244511;28;20043;-62
2021/12/22 11:00:27;;;;;;;17.23;14.07;;;;;;;5.15;51.64;101126.53;10244936;28;20045;-64
2021/12/22 11:05:30;;;;;;;16.80;11.38;;;;;;;6.80;46.88;101112.59;10225070;28;20046;-63
2021/12/22 11:10:31;;;;;;;14.30;12.77;;;;;;;8.80;41.95;101109.59;10228734;28;20351;-65
2021/12/22 11:15:43;;;;;;;15.20;12.07;;;;;;;10.24;38.62;101106.88;10244714;28;20059;-64
2021/12/22 11:20:46;;;;;;;15.13;13.65;;;;;;;11.36;36.26;101096.72;10244835;28;20055;-65
2021/12/22 11:25:47;;;;;;;16.02;14.43;;;;;;;12.41;34.35;101095.38;10224259;28;20076;-62
2021/12/22 11:30:49;;;;;;;15.95;14.45;;;;;;;13.75;32.53;101098.41;10244000;28;20061;-65
2021/12/22 11:35:52;;;;;;;13.95;12.55;;;;;;;14.74;30.32;101084.97;10241587;28;20055;-64
2021/12/22 11:40:56;;;;;;;14.38;12.77;;;;;;;15.95;28.96;101080.72;10247942;28;20133;-64
2021/12/22 11:46:00;;;;;;;15.43;13.93;;;;;;;17.26;26.69;101070.44;10245130;28;20432;-64
2021/12/22 11:51:03;;;;;;;13.18;11.77;;;;;;;17.72;25.62;101073.22;10243819;28;20510;-67
2021/12/22 11:56:04;;;;;;;12.50;11.05;;;;;;;18.26;25.10;101058.00;10245556;28;20059;-66
2021/12/22 12:01:08;;;;;;;12.55;11.38;;;;;;;18.48;24.03;101056.69;10225943;28;20380;-65
2021/12/22 12:06:18;;;;;;;12.70;11.50;;;;;;;19.32;23.61;101057.09;10238470;28;20065;-66
2021/12/22 12:22:09;;;;;;;11.45;10.35;;;;;;;16.28;26.48;101038.34;10244748;28;20678;-65
2021/12/22 12:27:37;;;;;;;11.90;10.80;;;;;;;15.53;27.84;101027.19;10245061;28;21283;-65
2021/12/22 12:32:38;;;;;;;13.98;12.77;;;;;;;14.57;29.00;101029.25;10225065;28;20505;-65
2021/12/22 12:38:01;;;;;;;13.77;12.48;;;;;;;14.22;29.80;101019.69;10224414;28;20051;-65
2021/12/22 12:43:03;;;;;;;12.75;11.50;;;;;;;13.62;30.58;101025.47;10230152;28;20493;-65
2021/12/22 12:48:24;;;;;;;13.10;11.80;;;;;;;13.18;31.33;101019.13;10228109;28;20255;-65
2021/12/22 12:53:28;;;;;;;12.48;11.35;;;;;;;12.48;32.60;101010.31;10244577;28;20134;-65
2021/12/22 12:58:29;;;;;;;13.73;12.32;;;;;;;12.80;32.01;101004.31;10222802;28;20047;-66
2021/12/22 13:03:46;;;;;;;14.10;12.07;;;;;;;12.94;31.87;100995.19;10244430;28;20660;-65
2021/12/22 13:08:48;;;;;;;14.20;12.82;;;;;;;13.30;32.24;100985.22;10210246;28;20367;-65
2021/12/22 13:19:11;;;;;;;12.00;10.80;;;;;;;12.72;32.38;100973.69;10239852;28;20055;-65
2021/12/22 13:24:19;;;;;;;13.90;11.33;;;;;;;12.62;32.55;100983.38;10244127;28;20153;-65
2021/12/22 13:29:20;;;;;;;14.23;12.90;;;;;;;12.93;32.57;100990.84;10243076;28;20148;-65
2021/12/22 13:34:22;;;;;;;13.55;12.20;;;;;;;12.24;32.84;100989.88;10239287;28;20333;-65
2021/12/22 13:39:23;;;;;;;14.35;12.95;;;;;;;11.06;34.77;100967.34;10240127;28;20059;-65
2021/12/22 13:44:24;;;;;;;14.05;12.73;;;;;;;9.77;37.52;100971.66;10240652;28;20043;-65
2021/12/22 13:49:27;;;;;;;13.80;12.43;;;;;;;8.89;39.09;100967.47;10243290;28;20496;-65
2021/12/22 13:54:32;;;;;;;16.73;13.55;;;;;;;7.91;41.25;100966.22;10221229;28;20074;-66
2021/12/22 13:59:36;;;;;;;13.95;12.57;;;;;;;7.32;43.70;100950.13;10238931;28;20148;-63
2021/12/22 14:04:39;;;;;;;13.40;12.10;;;;;;;6.72;44.41;100933.94;10238077;28;20489;-63
2021/12/22 14:09:47;;;;;;;14.48;13.07;;;;;;;6.50;45.55;100954.50;10239187;28;20051;-63
2021/12/22 14:15:00;;;;;;;13.75;12.18;;;;;;;6.29;45.87;100952.06;10237822;28;20294;-62
2021/12/22 14:20:30;;;;;;;14.38;12.85;;;;;;;6.18;46.18;100941.19;10239380;28;20050;-65
2021/12/22 14:25:33;;;;;;;14.98;12.57;;;;;;;5.94;47.01;100941.44;10202467;28;20082;-63
2021/12/22 14:30:37;;;;;;;14.60;13.10;;;;;;;5.80;47.51;100944.78;10244619;28;20541;-64
2021/12/22 14:35:42;;;;;;;14.05;12.57;;;;;;;5.64;48.06;100943.81;10244126;28;20320;-64
2021/12/22 14:40:53;;;;;;;14.18;12.52;;;;;;;5.53;48.79;100944.34;10245677;28;20046;-64
2021/12/22 14:45:54;;;;;;;13.38;11.27;;;;;;;5.33;49.42;100950.59;10227319;28;20217;-65
2021/12/22 14:51:06;;;;;;;11.95;10.77;;;;;;;5.12;50.00;100942.75;10245941;28;20062;-62
2021/12/22 14:56:22;;;;;;;13.00;11.57;;;;;;;4.86;51.38;100929.91;10240617;28;20362;-63
2021/12/22 15:01:25;;;;;;;14.50;11.75;;;;;;;4.73;52.34;100932.25;10245429;28;20051;-63
2021/12/22 15:06:29;;;;;;;13.32;11.85;;;;;;;4.53;52.88;100927.88;10246267;28;20069;-64
2021/12/22 15:11:31;;;;;;;12.45;11.27;;;;;;;4.33;53.54;100921.69;10244918;28;20528;-63
2021/12/22 15:16:32;;;;;;;13.05;11.55;;;;;;;4.20;53.96;100925.78;10227204;28;20055;-62
2021/12/22 15:21:34;;;;;;;13.13;11.82;;;;;;;4.01;54.65;100909.94;10245478;28;20047;-64
2021/12/22 15:26:37;;;;;;;14.98;11.27;;;;;;;3.80;55.11;100902.00;10247958;28;20051;-65
2021/12/22 15:31:39;;;;;;;13.55;12.10;;;;;;;3.70;55.47;100904.16;10247187;28;20050;-64
2021/12/22 15:36:40;;;;;;;14.15;12.68;;;;;;;3.61;55.74;100901.06;10226799;28;20070;-65
2021/12/22 15:41:42;;;;;;;13.65;12.18;;;;;;;3.57;56.26;100904.72;10229568;28;20055;-64
2021/12/22 15:46:47;;;;;;;13.73;12.38;;;;;;;3.51;56.28;100906.69;10245950;28;20458;-64
2021/12/22 15:51:48;;;;;;;15.77;13.13;;;;;;;3.48;56.75;100912.09;10245622;28;21124;-65
2021/12/22 15:56:50;;;;;;;15.68;13.27;;;;;;;3.49;56.50;100905.88;10230658;28;20491;-63
2021/12/22 16:01:52;;;;;;;15.15;13.55;;;;;;;3.42;56.72;100904.41;10245505;28;20287;-64
2021/12/22 16:06:53;;;;;;;13.45;11.18;;;;;;;3.34;57.05;100893.34;10228819;28;20080;-64
2021/12/22 16:11:55;;;;;;;14.30;12.82;;;;;;;3.21;57.14;100894.75;10246901;28;20050;-64
2021/12/22 16:16:56;;;;;;;15.82;12.85;;;;;;;3.26;57.41;100906.81;10226310;28;20583;-64
2021/12/22 16:21:58;;;;;;;17.27;14.05;;;;;;;3.27;57.44;100887.50;10243856;28;20086;-65
2021/12/22 16:26:59;;;;;;;15.10;12.70;;;;;;;3.33;57.84;100899.53;10245876;28;20565;-63
2021/12/22 16:32:00;;;;;;;15.27;12.60;;;;;;;3.33;57.59;100896.88;10241852;28;20465;-63
2021/12/22 16:37:02;;;;;;;14.75;13.15;;;;;;;3.28;57.72;100894.44;10226573;28;20125;-63
2021/12/22 16:42:05;;;;;;;17.33;14.07;;;;;;;3.25;57.87;100888.47;10244010;28;20506;-64
2021/12/22 16:47:08;;;;;;;15.07;13.50;;;;;;;2.95;59.04;100880.84;10244137;28;20270;-64
2021/12/22 16:52:09;;;;;;;17.77;13.80;;;;;;;3.00;58.90;100878.88;10224870;28;20078;-62
2021/12/22 16:57:15;;;;;;;19.30;15.13;;;;;;;2.93;58.95;100887.97;10244801;28;20113;-65
2021/12/22 17:02:17;;;;;;;17.55;14.65;;;;;;;2.83;59.26;100901.44;10239853;28;20347;-62
2021/12/22 17:07:18;;;;;;;16.15;14.43;;;;;;;2.70;59.12;100892.28;10227141;28;20098;-62
2021/12/22 17:12:20;;;;;;;19.10;15.07;;;;;;;2.51;59.43;100896.50;10219726;28;20068;-65
2021/12/22 17:17:23;;;;;;;20.63;17.58;;;;;;;2.42;60.04;100882.81;10224127;28;20389;-63
2021/12/22 17:22:27;;;;;;;19.02;16.20;;;;;;;2.45;59.75;100887.09;10245550;28;20964;-64
2021/12/22 17:27:29;;;;;;;19.80;15.40;;;;;;;2.22;59.82;100869.53;10215537;28;20428;-64
2021/12/22 17:32:32;;;;;;;17.50;15.10;;;;;;;2.28;59.76;100890.31;10239462;28;20711;-64
2021/12/22 17:37:33;;;;;;;24.42;18.40;;;;;;;2.23;59.84;100881.75;10240243;28;20510;-64
2021/12/22 17:42:34;;;;;;;18.45;15.05;;;;;;;2.16;59.72;100883.72;10244215;28;20054;-64
2021/12/22 17:47:37;;;;;;;18.65;16.50;;;;;;;2.05;59.90;100889.38;10227733;28;20459;-63
2021/12/22 17:52:40;;;;;;;25.23;21.85;;;;;;;2.02;59.99;100889.47;10245450;28;20051;-64
2021/12/22 17:57:41;;;;;;;23.17;19.70;;;;;;;2.10;60.24;100891.84;10243598;28;20050;-63
2021/12/22 18:02:43;;;;;;;22.33;17.95;;;;;;;2.01;60.62;100881.66;10244226;28;20056;-64
2021/12/22 18:07:45;;;;;;;18.58;16.50;;;;;;;1.99;60.44;100879.09;10229278;28;20054;-64
2021/12/22 18:12:46;;;;;;;19.35;16.23;;;;;;;2.02;60.60;100884.22;10240955;28;20058;-65
2021/12/22 18:17:48;;;;;;;18.63;16.63;;;;;;;2.02;60.58;100883.38;10242791;28;20050;-64
2021/12/22 18:22:49;;;;;;;22.85;17.20;;;;;;;1.97;61.00;100875.66;10220895;28;20161;-64
2021/12/22 18:27:50;;;;;;;19.52;16.08;;;;;;;1.89;60.93;100869.81;10223623;28;20047;-64
2021/12/22 18:32:52;;;;;;;20.13;17.80;;;;;;;1.78;61.29;100857.06;10243054;28;20399;-65
2021/12/22 18:38:04;;;;;;;18.50;16.48;;;;;;;1.80;61.36;100847.34;10229886;28;20057;-64
2021/12/22 18:43:06;;;;;;;20.38;15.45;;;;;;;1.74;61.65;100837.94;10245876;28;20051;-64
2021/12/22 18:48:08;;;;;;;17.92;16.00;;;;;;;1.71;62.01;100831.91;10242910;28;20061;-65
2021/12/22 18:53:09;;;;;;;24.40;16.98;;;;;;;1.66;61.89;100829.47;10244072;28;20161;-65
2021/12/22 18:58:11;;;;;;;19.55;16.65;;;;;;;1.66;62.42;100829.47;10225610;28;20088;-64
2021/12/22 19:03:12;;;;;;;17.67;15.75;;;;;;;1.56;62.55;100807.94;10239554;28;20057;-64
2021/12/22 19:08:15;;;;;;;24.10;19.92;;;;;;;1.62;62.11;100817.34;10244725;28;20640;-65
2021/12/22 19:13:17;;;;;;;22.67;18.58;;;;;;;1.65;62.23;100812.00;10221769;28;20063;-65
2021/12/22 19:18:20;;;;;;;26.95;20.85;;;;;;;1.62;62.45;100806.84;10230541;28;20047;-65
2021/12/22 19:23:22;;;;;;;21.65;18.45;;;;;;;1.63;62.23;100803.31;10248306;28;20066;-64
2021/12/22 19:28:23;;;;;;;22.88;18.80;;;;;;;1.56;63.21;100789.56;10252090;28;20691;-64
2021/12/22 19:33:27;;;;;;;24.73;18.98;;;;;;;1.49;62.78;100779.34;10230592;28;20077;-63
2021/12/22 19:38:29;;;;;;;20.90;17.17;;;;;;;1.47;62.78;100765.41;10248459;28;20047;-65
2021/12/22 19:43:30;;;;;;;20.13;17.98;;;;;;;1.47;63.04;100749.66;10247807;28;20103;-66
2021/12/22 19:48:32;;;;;;;21.15;18.58;;;;;;;1.47;62.56;100758.41;10246110;28;20685;-65
2021/12/22 19:53:33;;;;;;;22.45;17.77;;;;;;;1.54;62.55;100766.91;10228468;28;20059;-65
2021/12/22 19:58:34;;;;;;;26.27;18.38;;;;;;;1.45;62.89;100746.25;10229660;28;20054;-66
2021/12/22 20:03:36;;;;;;;22.23;18.45;;;;;;;1.42;62.53;100741.94;10246475;28;20057;-65
2021/12/22 20:08:38;;;;;;;19.20;16.58;;;;;;;1.38;63.21;100741.22;10249201;28;20314;-64
2021/12/22 20:13:41;;;;;;;19.70;17.58;;;;;;;1.37;62.81;100734.22;10249314;28;20054;-66
2021/12/22 20:18:42;;;;;;;21.40;18.48;;;;;;;1.36;63.03;100745.63;10244313;28;20141;-64
2021/12/22 20:23:44;;;;;;;22.90;17.83;;;;;;;1.44;62.79;100744.50;10229889;28;20285;-65
2021/12/22 20:28:46;;;;;;;22.30;18.55;;;;;;;1.46;62.89;100740.94;10223302;28;20058;-64
2021/12/22 20:33:48;;;;;;;22.63;20.00;;;;;;;1.47;62.80;100723.41;10245370;28;20055;-63
2021/12/22 20:38:50;;;;;;;26.10;20.08;;;;;;;1.46;62.91;100732.22;10247077;28;20531;-63
2021/12/22 20:43:52;;;;;;;23.73;19.65;;;;;;;1.31;63.31;100721.34;10245304;28;20050;-62
2021/12/22 20:48:53;;;;;;;20.95;18.42;;;;;;;1.48;63.00;100730.38;10247296;28;20079;-64
2021/12/22 20:53:56;;;;;;;20.40;17.98;;;;;;;1.41;63.37;100729.72;10251918;28;20050;-64
2021/12/22 20:58:57;;;;;;;21.00;18.52;;;;;;;1.38;63.47;100735.97;10249726;28;20698;-66
2021/12/22 21:04:00;;;;;;;22.48;19.35;;;;;;;1.44;63.07;100742.72;10253524;28;20057;-65
2021/12/22 21:09:02;;;;;;;21.13;17.38;;;;;;;1.41;63.18;100733.22;10254812;28;20573;-63
2021/12/22 21:14:05;;;;;;;23.08;17.65;;;;;;;1.41;63.25;100725.34;10252210;28;20069;-63
2021/12/22 21:19:07;;;;;;;23.35;17.52;;;;;;;1.38;63.47;100719.34;10241186;28;20122;-63
2021/12/22 21:24:10;;;;;;;20.67;18.20;;;;;;;1.28;63.36;100724.06;10222916;28;20126;-64
2021/12/22 21:29:11;;;;;;;20.35;18.20;;;;;;;1.22;63.01;100708.53;10246322;28;20421;-64
2021/12/22 21:34:12;;;;;;;20.15;16.88;;;;;;;1.19;63.25;100713.91;10252919;28;20559;-64
2021/12/22 21:39:14;;;;;;;21.20;18.25;;;;;;;1.19;63.43;100687.66;10258239;28;20130;-64
2021/12/22 21:44:16;;;;;;;20.63;17.58;;;;;;;1.08;63.81;100695.03;10257399;28;20061;-64
2021/12/22 21:49:18;;;;;;;20.90;17.25;;;;;;;1.01;63.82;100695.25;10259766;28;20432;-64
2021/12/22 21:54:21;;;;;;;23.40;19.52;;;;;;;0.99;63.72;100683.97;10242368;28;20101;-64
2021/12/22 21:59:22;;;;;;;22.92;18.73;;;;;;;0.94;64.16;100683.25;10260040;28;20081;-64
2021/12/22 22:04:23;;;;;;;22.95;18.92;;;;;;;0.84;64.30;100695.81;10258662;28;20090;-64
2021/12/22 22:09:25;;;;;;;23.10;19.60;;;;;;;0.80;64.64;100691.56;10258115;28;20593;-64
2021/12/22 22:14:26;;;;;;;21.25;18.23;;;;;;;0.71;65.17;100681.41;10246660;28;20413;-63
2021/12/22 22:19:27;;;;;;;21.33;18.85;;;;;;;0.69;64.61;100678.84;10260492;28;20073;-64
2021/12/22 22:24:29;;;;;;;21.48;19.13;;;;;;;0.51;64.99;100656.72;10261419;28;20039;-64
2021/12/22 22:29:31;;;;;;;22.75;20.35;;;;;;;0.56;65.31;100661.78;10261369;28;20073;-64
2021/12/22 22:34:32;;;;;;;25.92;20.10;;;;;;;0.51;65.44;100653.22;10261023;28;20118;-65
2021/12/22 22:39:33;;;;;;;22.55;19.95;;;;;;;0.50;65.31;100638.41;10242047;28;20417;-64
2021/12/22 22:44:35;;;;;;;23.98;21.23;;;;;;;0.47;65.51;100651.63;10261303;28;20130;-65
2021/12/22 22:49:37;;;;;;;24.85;20.48;;;;;;;0.51;65.75;100647.97;10242835;28;20505;-64
2021/12/22 22:54:38;;;;;;;27.25;21.83;;;;;;;0.50;65.44;100641.88;10267557;28;20384;-64
2021/12/22 22:59:39;;;;;;;24.30;20.80;;;;;;;0.52;65.63;100633.97;10266507;28;20053;-64
2021/12/22 23:04:41;;;;;;;24.48;20.83;;;;;;;0.41;65.52;100636.09;10267855;28;20054;-64
2021/12/22 23:09:42;;;;;;;21.58;18.20;;;;;;;0.40;65.59;100630.00;10267761;28;20620;-64
2021/12/22 23:14:44;;;;;;;23.98;20.25;;;;;;;0.29;65.43;100622.47;10248180;28;20133;-64
2021/12/22 23:19:45;;;;;;;21.35;19.15;;;;;;;0.20;65.84;100621.94;10265698;28;20053;-64
2021/12/22 23:24:47;;;;;;;21.77;19.40;;;;;;;0.14;65.46;100602.03;10247817;28;20057;-64